Terminal Aerodrome Forecast
Issued by NWS Louisville, KY

Home | Current Version | Previous Version | Text Only | Print | Product List | Glossary On
Versions: 1 2 3 4 5 6 7 8 9 10 11 12 13 14 15
000
FTUS43 KLMK 242300
TAFBWG
TAF
KBWG 242321Z 2500/2524 17007KT P6SM SCT100 BKN250
     FM250400 19013G22KT P6SM VCTS BKN050CB
      TEMPO 2504/2507 VRB20G30KT 3SM -TSRA BR OVC040CB
     FM250700 24013KT P6SM VCSH BKN025
     FM251500 29013G23KT P6SM SCT040=

USA.gov is the U.S. government's official web portal to all federal, state and local government web resources and services.